Time;durP1;ratioP1;P1;durP2;ratioP2;P2;SDS_P1;SDS_P2;PMS_P1;PMS_P2;Temp;Humidity;BMP_temperature;BMP_pressure;BME280_temperature;BME280_humidity;BME280_pressure;Samples;Min_cycle;Max_cycle;Signal;HPM_P1;HPM_P2
2023/12/24 00:00:03;;;;;;;0.40;0.30;;;;;;;8.85;100.00;99291.09;332942;28;17984;-76
2023/12/24 00:00:15;;;;;;;0.20;0.20;;;;;;;8.83;100.00;99288.56;335161;28;12355;-76
2023/12/24 00:00:27;;;;;;;0.30;0.20;;;;;;;8.90;100.00;99284.06;330609;28;18471;-77
2023/12/24 00:00:39;;;;;;;0.43;0.22;;;;;;;8.88;100.00;99289.28;336118;29;5250;-76
2023/12/24 00:00:51;;;;;;;0.38;0.30;;;;;;;8.90;100.00;99279.72;333152;29;17912;-76
2023/12/24 00:01:05;;;;;;;0.50;0.32;;;;;;;8.91;100.00;99296.09;335774;28;4819;-76
2023/12/24 00:01:17;;;;;;;0.43;0.30;;;;;;;8.93;100.00;99268.38;333462;28;18113;-76
2023/12/24 00:01:29;;;;;;;0.50;0.30;;;;;;;9.02;100.00;99288.84;331660;28;4698;-78
2023/12/24 00:01:43;;;;;;;0.32;0.25;;;;;;;8.99;100.00;99284.59;332333;28;13776;-75
2023/12/24 00:01:55;;;;;;;0.20;0.20;;;;;;;8.97;100.00;99277.75;336194;28;5554;-76
2023/12/24 00:02:07;;;;;;;0.30;0.20;;;;;;;8.94;100.00;99280.47;332364;29;18311;-75
2023/12/24 00:02:19;;;;;;;0.22;0.22;;;;;;;8.96;100.00;99289.88;334435;29;4554;-76
2023/12/24 00:02:31;;;;;;;0.22;0.20;;;;;;;8.91;100.00;99285.72;331498;29;16186;-76
2023/12/24 00:02:43;;;;;;;0.32;0.32;;;;;;;8.89;100.00;99274.56;334200;29;5324;-76
2023/12/24 00:02:55;;;;;;;0.35;0.35;;;;;;;8.86;100.00;99292.81;334680;29;5562;-76
2023/12/24 00:03:11;;;;;;;0.30;0.30;;;;;;;8.87;100.00;99248.69;332022;29;18537;-76
2023/12/24 00:03:23;;;;;;;0.30;0.30;;;;;;;9.00;100.00;99286.28;333909;29;4865;-76
2023/12/24 00:03:37;;;;;;;1.30;0.28;;;;;;;8.99;100.00;99265.59;334037;29;4745;-76
2023/12/24 00:03:49;;;;;;;1.52;0.30;;;;;;;8.94;100.00;99285.66;332193;29;17796;-78
2023/12/24 00:04:01;;;;;;;0.98;0.30;;;;;;;8.85;100.00;99291.09;331519;28;16530;-76
2023/12/24 00:04:13;;;;;;;0.70;0.30;;;;;;;8.92;100.00;99274.47;333633;28;19113;-76
2023/12/24 00:04:25;;;;;;;0.30;0.30;;;;;;;8.96;100.00;99276.06;336160;28;5135;-76
2023/12/24 00:04:37;;;;;;;0.40;0.30;;;;;;;8.98;100.00;99297.63;333247;28;17135;-76
2023/12/24 00:04:50;;;;;;;0.38;0.30;;;;;;;8.94;100.00;99270.09;335467;28;5231;-76
2023/12/24 00:05:02;;;;;;;0.43;0.25;;;;;;;8.93;100.00;99283.94;333737;28;5332;-77
2023/12/24 00:05:14;;;;;;;1.40;0.50;;;;;;;8.90;100.00;99268.50;336272;28;4937;-76
2023/12/24 00:05:26;;;;;;;1.60;0.60;;;;;;;8.95;100.00;99266.59;334295;29;16949;-76
2023/12/24 00:05:38;;;;;;;0.98;0.50;;;;;;;8.99;100.00;99294.97;327930;28;18086;-75
2023/12/24 00:05:50;;;;;;;0.82;0.50;;;;;;;9.06;100.00;99274.88;336133;28;4636;-77
2023/12/24 00:06:09;;;;;;;0.40;0.40;;;;;;;8.99;100.00;99283.75;333874;28;18072;-76
2023/12/24 00:06:22;;;;;;;0.40;0.30;;;;;;;9.01;100.00;99268.97;336247;28;7056;-75
2023/12/24 00:06:34;;;;;;;0.68;0.40;;;;;;;9.04;100.00;99276.69;334719;28;18891;-76
2023/12/24 00:06:46;;;;;;;2.35;0.52;;;;;;;8.91;100.00;99283.13;336866;28;4580;-76
2023/12/24 00:06:58;;;;;;;2.70;0.60;;;;;;;8.88;100.00;99307.41;332327;29;13568;-75
2023/12/24 00:07:10;;;;;;;2.25;0.40;;;;;;;8.90;100.00;99284.88;333728;29;4597;-76
2023/12/24 00:07:22;;;;;;;0.73;0.40;;;;;;;8.90;100.00;99246.00;331882;29;13815;-76
2023/12/24 00:07:34;;;;;;;0.80;0.40;;;;;;;8.92;100.00;99287.44;334525;29;5277;-76
2023/12/24 00:07:46;;;;;;;0.50;0.30;;;;;;;8.94;100.00;99280.47;335024;29;4548;-76
2023/12/24 00:07:58;;;;;;;0.52;0.50;;;;;;;9.02;100.00;99272.44;331239;29;11098;-76
2023/12/24 00:08:10;;;;;;;0.63;0.50;;;;;;;9.01;100.00;99271.56;334834;29;4611;-76
2023/12/24 00:08:22;;;;;;;0.88;0.55;;;;;;;8.97;100.00;99280.34;334205;29;16325;-76
2023/12/24 00:08:35;;;;;;;0.80;0.40;;;;;;;8.95;100.00;99267.47;326994;29;17737;-76
2023/12/24 00:08:47;;;;;;;0.43;0.30;;;;;;;8.94;100.00;99264.91;335729;28;5937;-76
2023/12/24 00:08:59;;;;;;;0.25;0.25;;;;;;;8.98;100.00;99275.13;334142;28;18496;-77
2023/12/24 00:09:11;;;;;;;0.30;0.30;;;;;;;8.95;100.00;99277.81;335794;28;4989;-76
2023/12/24 00:09:23;;;;;;;0.43;0.40;;;;;;;8.93;100.00;99269.25;333031;28;18036;-76
2023/12/24 00:09:35;;;;;;;0.50;0.50;;;;;;;8.95;100.00;99271.78;335822;28;4687;-77
2023/12/24 00:09:47;;;;;;;0.45;0.45;;;;;;;8.90;100.00;99263.31;336411;28;4543;-76
2023/12/24 00:09:59;;;;;;;0.32;0.32;;;;;;;8.94;100.00;99280.47;333027;28;18322;-76
2023/12/24 00:10:11;;;;;;;0.50;0.40;;;;;;;8.88;100.00;99280.66;336271;29;4802;-76
2023/12/24 00:10:23;;;;;;;0.95;0.50;;;;;;;8.95;100.00;99261.41;332970;29;18273;-75
2023/12/24 00:10:36;;;;;;;0.88;0.50;;;;;;;8.88;100.00;99265.09;335732;29;5539;-76
2023/12/24 00:10:48;;;;;;;0.57;0.40;;;;;;;8.88;100.00;99270.28;333204;28;13677;-75
2023/12/24 00:11:00;;;;;;;0.30;0.30;;;;;;;8.91;100.00;99268.41;335656;29;4833;-76
2023/12/24 00:11:12;;;;;;;0.43;0.30;;;;;;;8.92;100.00;99269.28;334863;29;4746;-76
2023/12/24 00:11:24;;;;;;;0.50;0.30;;;;;;;8.87;100.00;99278.94;333326;28;4718;-76
2023/12/24 00:11:36;;;;;;;0.73;0.43;;;;;;;8.87;100.00;99248.69;331377;28;5278;-78
2023/12/24 00:11:48;;;;;;;0.70;0.40;;;;;;;8.87;100.00;99271.16;335813;28;5378;-76
2023/12/24 00:12:00;;;;;;;0.63;0.32;;;;;;;8.91;100.00;99285.72;333684;28;18444;-75
2023/12/24 00:12:12;;;;;;;0.43;0.30;;;;;;;8.94;100.00;99236.41;335880;28;4617;-76
2023/12/24 00:12:25;;;;;;;0.50;0.40;;;;;;;8.97;100.00;99267.38;333163;28;17840;-77
2023/12/24 00:12:38;;;;;;;0.45;0.38;;;;;;;8.90;100.00;99281.47;336431;28;5272;-77
2023/12/24 00:12:50;;;;;;;0.30;0.30;;;;;;;8.94;100.00;99272.69;327437;29;9757;-75
2023/12/24 00:13:02;;;;;;;0.43;0.30;;;;;;;8.96;100.00;99278.66;334326;29;4637;-76
2023/12/24 00:13:14;;;;;;;0.57;0.40;;;;;;;8.99;99.84;99275.97;330860;29;14343;-76
2023/12/24 00:13:26;;;;;;;0.47;0.40;;;;;;;8.95;99.80;99276.97;332955;29;4639;-76
2023/12/24 00:13:38;;;;;;;0.38;0.38;;;;;;;8.98;99.84;99272.53;333464;29;5853;-76
2023/12/24 00:13:50;;;;;;;0.35;0.30;;;;;;;8.97;99.75;99259.59;330828;29;18135;-75
2023/12/24 00:14:03;;;;;;;0.75;0.32;;;;;;;8.94;99.83;99257.13;333510;29;6658;-76
2023/12/24 00:14:16;;;;;;;0.90;0.40;;;;;;;8.94;99.60;99277.88;330561;29;17712;-77
2023/12/24 00:14:28;;;;;;;0.80;0.40;;;;;;;8.94;99.65;99275.28;330311;29;4747;-78
2023/12/24 00:14:40;;;;;;;0.28;0.28;;;;;;;8.96;99.69;99252.75;332408;28;13968;-75
2023/12/24 00:14:54;;;;;;;0.38;0.38;;;;;;;8.96;99.96;99279.50;336149;28;4674;-76
2023/12/24 00:15:07;;;;;;;0.50;0.47;;;;;;;8.99;100.00;99265.59;332286;28;19224;-76
2023/12/24 00:15:21;;;;;;;0.30;0.30;;;;;;;8.97;99.86;99270.84;335154;28;4704;-76
2023/12/24 00:15:33;;;;;;;0.38;0.38;;;;;;;8.99;99.73;99283.75;334691;28;18041;-77
2023/12/24 00:15:45;;;;;;;0.40;0.40;;;;;;;8.98;99.48;99256.13;337213;28;5470;-77
2023/12/24 00:15:57;;;;;;;0.22;0.22;;;;;;;8.96;99.46;99268.31;333905;28;17559;-78
2023/12/24 00:16:09;;;;;;;0.32;0.30;;;;;;;9.04;99.09;99284.44;335382;28;5425;-79
2023/12/24 00:16:21;;;;;;;0.40;0.25;;;;;;;9.02;99.22;99272.44;333178;28;14895;-76
2023/12/24 00:16:33;;;;;;;0.22;0.20;;;;;;;9.00;99.09;99264.72;335549;28;5330;-77
2023/12/24 00:16:45;;;;;;;0.30;0.30;;;;;;;9.12;99.14;99272.09;335922;28;5311;-78
2023/12/24 00:16:57;;;;;;;0.40;0.40;;;;;;;9.07;98.84;99266.19;333513;28;18038;-79
2023/12/24 00:17:09;;;;;;;0.30;0.30;;;;;;;9.03;99.09;99280.16;336786;28;4577;-76
2023/12/24 00:17:22;;;;;;;0.30;0.20;;;;;;;8.99;98.90;99268.19;335859;29;5036;-76
2023/12/24 00:17:34;;;;;;;0.28;0.20;;;;;;;9.01;99.15;99250.84;331555;29;18390;-76
2023/12/24 00:17:46;;;;;;;0.57;0.30;;;;;;;9.03;99.30;99264.59;333437;29;4765;-76
2023/12/24 00:17:59;;;;;;;0.50;0.20;;;;;;;9.02;99.12;99257.72;330056;29;16557;-76
2023/12/24 00:18:11;;;;;;;0.25;0.20;;;;;;;8.97;99.42;99268.25;331848;29;4677;-79
2023/12/24 00:18:23;;;;;;;0.20;0.20;;;;;;;9.02;99.61;99265.50;329480;29;18274;-76
2023/12/24 00:18:36;;;;;;;0.40;0.30;;;;;;;9.06;99.34;99259.31;332007;29;5011;-77
2023/12/24 00:18:48;;;;;;;0.45;0.30;;;;;;;9.01;99.02;99261.22;325484;29;18511;-76
2023/12/24 00:19:00;;;;;;;0.40;0.20;;;;;;;8.98;99.17;99243.19;332918;29;5015;-75
2023/12/24 00:19:12;;;;;;;0.40;0.20;;;;;;;9.01;99.37;99268.97;329495;29;7334;-75
2023/12/24 00:19:24;;;;;;;0.20;0.20;;;;;;;8.97;99.51;99275.16;332021;29;5939;-75
2023/12/24 00:19:36;;;;;;;0.30;0.30;;;;;;;8.91;99.35;99281.38;333465;29;5728;-76
2023/12/24 00:19:48;;;;;;;0.30;0.30;;;;;;;8.90;99.52;99264.16;333086;29;18837;-76
2023/12/24 00:20:00;;;;;;;0.30;0.30;;;;;;;8.87;99.74;99292.75;335144;28;5312;-76
2023/12/24 00:20:13;;;;;;;0.45;0.30;;;;;;;8.87;99.53;99277.19;332293;28;13804;-76
2023/12/24 00:20:25;;;;;;;0.45;0.28;;;;;;;8.89;99.51;99300.47;330018;29;4633;-76
2023/12/24 00:20:37;;;;;;;0.22;0.20;;;;;;;8.90;99.88;99252.94;334119;29;4547;-77
2023/12/24 00:20:49;;;;;;;0.10;0.10;;;;;;;8.96;99.62;99274.31;331856;29;17969;-76
2023/12/24 00:21:02;;;;;;;0.20;0.20;;;;;;;8.97;99.75;99269.97;334927;28;5099;-76
2023/12/24 00:21:14;;;;;;;0.20;0.20;;;;;;;9.03;99.21;99282.75;328727;28;4676;-76
2023/12/24 00:21:26;;;;;;;0.30;0.30;;;;;;;9.00;99.25;99249.16;334682;29;5121;-76
2023/12/24 00:21:38;;;;;;;0.30;0.30;;;;;;;9.01;99.00;99297.50;334125;29;13024;-76
2023/12/24 00:21:51;;;;;;;0.50;0.40;;;;;;;9.03;98.97;99300.06;332871;28;18493;-76
2023/12/24 00:22:05;;;;;;;2.13;0.40;;;;;;;8.99;99.28;99253.50;332309;28;12457;-77
2023/12/24 00:22:17;;;;;;;2.00;0.40;;;;;;;9.01;99.54;99266.38;338201;28;5689;-78
2023/12/24 00:22:29;;;;;;;0.47;0.40;;;;;;;8.99;99.12;99271.66;333645;28;18210;-77
2023/12/24 00:22:41;;;;;;;0.30;0.30;;;;;;;8.99;99.36;99258.69;335525;28;4911;-77
2023/12/24 00:23:06;;;;;;;0.20;0.20;;;;;;;8.96;99.69;99274.31;332496;29;4696;-77
2023/12/24 00:23:18;;;;;;;0.40;0.20;;;;;;;8.95;99.38;99262.28;328913;28;18244;-77
2023/12/24 00:23:30;;;;;;;0.47;0.30;;;;;;;8.94;99.39;99264.91;331354;28;18321;-75
2023/12/24 00:23:44;;;;;;;0.30;0.20;;;;;;;8.97;99.51;99277.75;334727;29;4994;-76
2023/12/24 00:23:56;;;;;;;0.25;0.20;;;;;;;8.93;99.62;99269.25;330402;28;17156;-75
2023/12/24 00:24:08;;;;;;;0.20;0.10;;;;;;;8.88;99.60;99275.47;333812;29;4826;-76
2023/12/24 00:24:23;;;;;;;0.10;0.10;;;;;;;8.92;99.59;99271.88;331846;29;17593;-76
2023/12/24 00:24:35;;;;;;;0.20;0.20;;;;;;;8.85;100.00;99279.00;330669;29;18336;-76
2023/12/24 00:24:47;;;;;;;0.40;0.28;;;;;;;8.93;100.00;99260.59;334445;29;6150;-77
2023/12/24 00:24:59;;;;;;;0.35;0.25;;;;;;;8.90;100.00;99268.50;332744;29;14817;-77
2023/12/24 00:25:11;;;;;;;0.30;0.20;;;;;;;8.89;100.00;99269.38;334979;29;4989;-78
2023/12/24 00:25:23;;;;;;;0.43;0.30;;;;;;;8.96;99.73;99286.44;334781;29;4712;-77
2023/12/24 00:25:36;;;;;;;1.00;0.40;;;;;;;8.98;99.69;99261.31;332698;28;18176;-76
2023/12/24 00:25:48;;;;;;;1.00;0.30;;;;;;;8.94;99.69;99286.50;335175;28;5452;-76
2023/12/24 00:26:00;;;;;;;0.80;0.35;;;;;;;8.98;99.48;99263.91;332296;29;18981;-75
2023/12/24 00:26:13;;;;;;;0.43;0.25;;;;;;;8.97;99.25;99272.56;330541;29;4918;-76
2023/12/24 00:26:25;;;;;;;0.38;0.20;;;;;;;8.96;99.63;99271.72;334297;28;5334;-75
2023/12/24 00:26:37;;;;;;;0.30;0.20;;;;;;;8.98;99.51;99250.94;334941;28;17285;-76
2023/12/24 00:26:49;;;;;;;0.40;0.20;;;;;;;9.02;99.18;99229.22;335994;29;4571;-76
2023/12/24 00:27:01;;;;;;;0.30;0.20;;;;;;;9.04;98.72;99284.44;332708;28;18022;-75
2023/12/24 00:27:13;;;;;;;0.30;0.20;;;;;;;9.02;98.77;99278.47;335733;28;4566;-76
2023/12/24 00:27:24;;;;;;;0.50;0.30;;;;;;;9.05;98.74;99262.81;334355;29;5470;-76
2023/12/24 00:27:37;;;;;;;0.40;0.30;;;;;;;9.01;98.98;99266.38;327526;29;18932;-76
2023/12/24 00:27:49;;;;;;;0.45;0.30;;;;;;;8.95;99.40;99262.28;334139;28;5500;-76
2023/12/24 00:28:01;;;;;;;0.82;0.40;;;;;;;8.92;99.40;99284.84;330495;29;18358;-75
2023/12/24 00:28:13;;;;;;;0.70;0.30;;;;;;;8.93;99.50;99269.25;332583;29;4595;-77
2023/12/24 00:28:25;;;;;;;0.32;0.20;;;;;;;8.88;99.60;99281.50;332117;29;8928;-76
2023/12/24 00:28:37;;;;;;;0.20;0.20;;;;;;;8.88;99.63;99262.50;334675;29;5430;-77
2023/12/24 00:28:51;;;;;;;0.20;0.20;;;;;;;8.94;99.45;99281.31;334180;28;5100;-77
2023/12/24 00:29:03;;;;;;;0.20;0.20;;;;;;;8.92;99.41;99230.41;330886;28;19118;-77
2023/12/24 00:29:15;;;;;;;0.38;0.20;;;;;;;8.98;99.34;99261.31;327568;29;4728;-76
2023/12/24 00:29:27;;;;;;;0.50;0.20;;;;;;;9.02;99.09;99247.38;331685;29;12448;-77
2023/12/24 00:29:39;;;;;;;0.60;0.30;;;;;;;8.96;99.34;99278.66;334751;29;4545;-76
2023/12/24 00:29:51;;;;;;;0.30;0.30;;;;;;;8.97;99.25;99264.78;333071;28;13596;-76
2023/12/24 00:30:03;;;;;;;0.32;0.30;;;;;;;8.95;99.54;99262.28;333894;29;4758;-77
2023/12/24 00:30:15;;;;;;;0.50;0.30;;;;;;;8.86;99.35;99287.63;334703;29;5020;-77
2023/12/24 00:30:28;;;;;;;0.88;0.30;;;;;;;8.89;99.58;99271.97;330722;29;17898;-77
2023/12/24 00:30:40;;;;;;;0.90;0.38;;;;;;;8.85;99.68;99265.19;333128;29;4578;-76
2023/12/24 00:30:52;;;;;;;0.50;0.30;;;;;;;8.79;99.91;99285.25;330136;29;5270;-77
2023/12/24 00:31:04;;;;;;;0.25;0.25;;;;;;;8.74;99.85;99284.53;334007;29;4566;-77
2023/12/24 00:31:18;;;;;;;0.20;0.20;;;;;;;8.76;100.00;99246.44;332395;28;19550;-77
2023/12/24 00:31:30;;;;;;;0.20;0.20;;;;;;;8.84;100.00;99263.50;335990;28;4549;-76
2023/12/24 00:31:42;;;;;;;0.20;0.20;;;;;;;8.95;99.72;99257.09;333285;28;19208;-76
2023/12/24 00:31:54;;;;;;;0.20;0.20;;;;;;;8.97;99.77;99277.75;334214;29;4805;-76
2023/12/24 00:32:06;;;;;;;0.20;0.20;;;;;;;8.96;99.41;99273.47;328620;29;4714;-78
2023/12/24 00:32:19;;;;;;;0.20;0.20;;;;;;;8.92;99.28;99271.88;329257;29;18307;-76
2023/12/24 00:32:31;;;;;;;0.20;0.20;;;;;;;8.98;99.52;99250.94;332360;29;5325;-78
2023/12/24 00:32:44;;;;;;;0.20;0.10;;;;;;;8.98;99.33;99293.28;326617;29;18062;-77
2023/12/24 00:32:57;;;;;;;0.17;0.10;;;;;;;8.98;98.98;99256.13;334932;29;4831;-76
2023/12/24 00:33:09;;;;;;;0.20;0.20;;;;;;;8.99;99.39;99266.47;330865;29;18101;-76
2023/12/24 00:33:21;;;;;;;0.20;0.20;;;;;;;8.90;99.31;99263.31;334663;29;5064;-77
2023/12/24 00:33:34;;;;;;;0.20;0.20;;;;;;;8.85;99.68;99257.41;331196;29;17912;-76
2023/12/24 00:33:47;;;;;;;0.55;0.20;;;;;;;8.86;99.97;99282.44;333657;29;5353;-76
2023/12/24 00:33:59;;;;;;;1.35;0.20;;;;;;;8.92;100.00;99235.59;331497;29;18186;-76
2023/12/24 00:34:11;;;;;;;1.30;0.20;;;;;;;8.98;99.91;99256.13;334442;29;6421;-78
2023/12/24 00:34:23;;;;;;;0.20;0.20;;;;;;;8.92;99.94;99264.13;331393;29;18168;-77
2023/12/24 00:34:35;;;;;;;0.20;0.20;;;;;;;8.86;100.00;99279.84;334862;29;4623;-78
2023/12/24 00:34:47;;;;;;;0.15;0.15;;;;;;;8.84;100.00;99212.53;326453;29;4758;-79
2023/12/24 00:34:59;;;;;;;0.20;0.17;;;;;;;8.87;100.00;99263.41;332690;29;4606;-77
2023/12/24 00:35:11;;;;;;;0.20;0.20;;;;;;;8.87;100.00;99278.94;333996;29;4802;-78
2023/12/24 00:35:25;;;;;;;0.20;0.20;;;;;;;8.87;100.00;99250.44;326874;29;18232;-78
2023/12/24 00:35:37;;;;;;;0.28;0.20;;;;;;;8.76;100.00;99267.19;330530;29;13557;-78
2023/12/24 00:35:49;;;;;;;0.40;0.20;;;;;;;8.86;100.00;99277.28;335484;28;4594;-78
2023/12/24 00:36:01;;;;;;;0.40;0.20;;;;;;;8.88;100.00;99259.94;334631;29;5160;-77
2023/12/24 00:36:13;;;;;;;0.30;0.20;;;;;;;8.86;100.00;99287.63;330929;29;18082;-77
2023/12/24 00:36:25;;;;;;;0.45;0.20;;;;;;;8.90;100.00;99252.94;333623;29;5762;-77
2023/12/24 00:36:37;;;;;;;0.65;0.20;;;;;;;8.90;100.00;99263.31;336279;28;4575;-78
2023/12/24 00:36:49;;;;;;;0.60;0.20;;;;;;;8.80;100.00;99261.00;332603;28;17955;-78
2023/12/24 00:37:02;;;;;;;0.20;0.20;;;;;;;8.84;100.00;99289.44;335126;29;4766;-77
2023/12/24 00:37:14;;;;;;;0.20;0.20;;;;;;;8.77;100.00;99283.56;331892;28;10995;-78
2023/12/24 00:37:26;;;;;;;0.20;0.20;;;;;;;8.75;100.00;99288.81;334593;29;5382;-77
2023/12/24 00:37:38;;;;;;;0.30;0.30;;;;;;;8.70;100.00;99275.16;335335;28;4772;-76
2023/12/24 00:37:50;;;;;;;0.30;0.30;;;;;;;8.69;100.00;99276.06;332049;29;18113;-76
2023/12/24 00:38:03;;;;;;;0.30;0.30;;;;;;;8.72;100.00;99268.16;334639;28;4778;-76
2023/12/24 00:38:15;;;;;;;0.30;0.30;;;;;;;8.68;100.00;99284.72;332373;28;18322;-76
2023/12/24 00:38:27;;;;;;;0.28;0.28;;;;;;;8.64;100.00;99270.16;334149;29;5319;-77
2023/12/24 00:38:42;;;;;;;0.20;0.20;;;;;;;8.71;100.00;99263.91;332446;29;18031;-76
2023/12/24 00:38:54;;;;;;;0.20;0.20;;;;;;;8.71;100.00;99278.56;333405;28;18580;-76
2023/12/24 00:39:06;;;;;;;0.22;0.20;;;;;;;8.72;100.00;99281.13;336126;28;4660;-76
2023/12/24 00:39:18;;;;;;;0.30;0.23;;;;;;;8.70;100.00;99282.91;331178;28;4921;-76
2023/12/24 00:39:30;;;;;;;0.32;0.30;;;;;;;8.72;100.00;99257.81;332315;28;18320;-77
2023/12/24 00:39:42;;;;;;;0.40;0.30;;;;;;;8.75;100.00;99275.88;335004;29;5384;-76
2023/12/24 00:39:54;;;;;;;0.50;0.30;;;;;;;8.79;100.00;99277.47;333705;28;13074;-75
2023/12/24 00:40:07;;;;;;;0.40;0.30;;;;;;;8.77;100.00;99276.66;334645;29;4715;-76
2023/12/24 00:40:19;;;;;;;0.40;0.30;;;;;;;8.82;100.00;99273.09;333201;29;12294;-75
2023/12/24 00:40:31;;;;;;;0.30;0.30;;;;;;;8.78;100.00;99291.31;335226;29;5312;-76
2023/12/24 00:40:44;;;;;;;0.30;0.30;;;;;;;8.76;100.00;99282.72;330528;29;4796;-76
2023/12/24 00:40:56;;;;;;;0.93;0.22;;;;;;;8.82;100.00;99270.50;333324;28;18031;-76
2023/12/24 00:41:08;;;;;;;0.80;0.20;;;;;;;8.73;100.00;99276.78;336573;28;5126;-76
2023/12/24 00:41:20;;;;;;;0.80;0.20;;;;;;;8.78;100.00;99306.84;332452;28;17986;-77
2023/12/24 00:41:32;;;;;;;0.20;0.20;;;;;;;8.79;100.00;99276.59;333125;29;4614;-77
2023/12/24 00:41:44;;;;;;;0.30;0.30;;;;;;;8.79;100.00;99274.00;329073;29;16907;-77
2023/12/24 00:41:56;;;;;;;0.25;0.25;;;;;;;8.79;100.00;99267.09;332485;29;4581;-76
2023/12/24 00:42:08;;;;;;;0.25;0.20;;;;;;;8.82;100.00;99270.50;331115;29;5022;-76
2023/12/24 00:42:22;;;;;;;0.68;0.30;;;;;;;8.74;100.00;99289.69;326523;29;16450;-76
2023/12/24 00:42:34;;;;;;;0.73;0.35;;;;;;;8.83;100.00;99282.53;330022;29;4666;-76
2023/12/24 00:42:46;;;;;;;5.95;0.70;;;;;;;8.86;100.00;99253.94;327284;29;18215;-78
2023/12/24 00:42:58;;;;;;;5.70;0.70;;;;;;;8.94;100.00;99275.28;329134;29;4601;-78
2023/12/24 00:43:10;;;;;;;0.35;0.35;;;;;;;9.02;100.00;99277.63;327210;29;13776;-76
2023/12/24 00:43:23;;;;;;;0.30;0.30;;;;;;;8.96;100.00;99263.13;331833;29;4666;-76
2023/12/24 00:43:37;;;;;;;0.47;0.35;;;;;;;8.94;100.00;99264.91;325372;29;17892;-76
2023/12/24 00:43:49;;;;;;;0.50;0.38;;;;;;;8.94;100.00;99276.13;333274;29;4728;-78
2023/12/24 00:44:01;;;;;;;0.40;0.30;;;;;;;8.92;100.00;99267.53;331770;28;18020;-78
2023/12/24 00:44:13;;;;;;;0.47;0.30;;;;;;;8.92;100.00;99259.78;332772;29;4689;-77
2023/12/24 00:44:25;;;;;;;0.63;0.40;;;;;;;8.88;100.00;99278.06;329780;29;5015;-75
2023/12/24 00:44:43;;;;;;;0.85;0.40;;;;;;;8.88;100.00;99270.28;332276;29;4609;-75
2023/12/24 00:44:55;;;;;;;1.42;0.30;;;;;;;8.82;100.00;99280.84;328125;29;17548;-75
2023/12/24 00:45:11;;;;;;;1.10;0.28;;;;;;;8.73;100.00;99280.25;330227;29;5480;-77
2023/12/24 00:45:23;;;;;;;1.23;0.30;;;;;;;8.70;100.00;99282.06;327273;29;17694;-75
2023/12/24 00:45:36;;;;;;;0.68;0.20;;;;;;;8.65;100.00;99279.59;328828;29;16566;-77
2023/12/24 00:45:48;;;;;;;0.40;0.20;;;;;;;8.62;100.00;99284.91;333201;29;4763;-76
2023/12/24 00:46:00;;;;;;;0.45;0.13;;;;;;;8.64;100.00;99277.94;330839;29;19459;-76
2023/12/24 00:46:14;;;;;;;0.52;0.20;;;;;;;8.78;100.00;99278.34;333315;29;5323;-77
2023/12/24 00:46:26;;;;;;;0.40;0.20;;;;;;;8.76;100.00;99272.38;331939;28;16496;-77
2023/12/24 00:46:38;;;;;;;0.45;0.20;;;;;;;8.72;100.00;99296.69;333929;28;18991;-76
2023/12/24 00:46:50;;;;;;;0.40;0.28;;;;;;;8.71;100.00;99253.53;335759;28;4798;-76
2023/12/24 00:47:02;;;;;;;0.30;0.30;;;;;;;8.75;100.00;99270.69;331373;29;18255;-76
2023/12/24 00:47:14;;;;;;;0.50;0.40;;;;;;;8.75;100.00;99275.00;333663;29;4976;-76
2023/12/24 00:47:26;;;;;;;0.40;0.40;;;;;;;8.76;100.00;99264.59;331102;29;18034;-78
2023/12/24 00:47:39;;;;;;;0.32;0.25;;;;;;;8.79;100.00;99313.75;333866;29;4558;-76
2023/12/24 00:47:51;;;;;;;0.70;0.38;;;;;;;8.72;100.00;99291.50;327232;29;17775;-76
2023/12/24 00:48:04;;;;;;;1.35;0.70;;;;;;;8.80;100.00;99301.63;335092;28;4710;-76
2023/12/24 00:48:16;;;;;;;1.20;0.60;;;;;;;8.83;100.00;99282.53;333263;28;18460;-75
2023/12/24 00:48:28;;;;;;;0.32;0.30;;;;;;;8.82;100.00;99270.50;336182;28;5435;-76
2023/12/24 00:48:41;;;;;;;0.20;0.20;;;;;;;8.86;100.00;99287.63;333120;29;4711;-75
2023/12/24 00:48:53;;;;;;;0.20;0.20;;;;;;;8.83;100.00;99287.72;332912;28;17510;-76
2023/12/24 00:49:06;;;;;;;0.38;0.20;;;;;;;8.83;100.00;99266.97;332963;29;4714;-76
2023/12/24 00:49:18;;;;;;;0.60;0.35;;;;;;;8.82;100.00;99268.72;331982;29;18028;-78
2023/12/24 00:49:30;;;;;;;0.60;0.40;;;;;;;8.77;100.00;99294.81;333357;29;4659;-76
2023/12/24 00:49:42;;;;;;;0.28;0.28;;;;;;;8.83;100.00;99266.97;330813;29;19047;-76
2023/12/24 00:49:54;;;;;;;0.20;0.20;;;;;;;8.86;100.00;99274.69;333725;29;5288;-76
2023/12/24 00:50:08;;;;;;;0.25;0.25;;;;;;;8.82;100.00;99276.50;329290;29;18093;-77
2023/12/24 00:50:20;;;;;;;0.30;0.30;;;;;;;8.84;100.00;99272.13;332138;29;4613;-76
2023/12/24 00:50:32;;;;;;;0.30;0.20;;;;;;;8.75;100.00;99295.72;329237;29;18171;-76
2023/12/24 00:50:44;;;;;;;0.40;0.30;;;;;;;8.74;100.00;99274.16;331706;29;5121;-76
2023/12/24 00:50:56;;;;;;;2.45;0.45;;;;;;;8.84;100.00;99266.09;333399;29;10296;-75
2023/12/24 00:51:09;;;;;;;2.50;0.40;;;;;;;8.77;100.00;99268.88;333276;29;17325;-77
2023/12/24 00:51:21;;;;;;;0.40;0.30;;;;;;;8.70;100.00;99277.75;334492;29;4720;-76
2023/12/24 00:51:33;;;;;;;0.40;0.20;;;;;;;8.66;100.00;99286.50;332024;28;13870;-75
2023/12/24 00:51:45;;;;;;;0.57;0.20;;;;;;;8.67;100.00;99283.03;335113;29;4787;-76
2023/12/24 00:51:57;;;;;;;0.45;0.22;;;;;;;8.67;100.00;99267.47;335660;28;5420;-76
2023/12/24 00:52:09;;;;;;;0.90;0.30;;;;;;;8.68;100.00;99242.41;334360;28;17110;-78
2023/12/24 00:52:21;;;;;;;0.70;0.20;;;;;;;8.71;100.00;99266.50;337609;28;4776;-78
2023/12/24 00:52:35;;;;;;;0.60;0.10;;;;;;;8.76;100.00;99281.88;332135;29;18217;-78
2023/12/24 00:52:47;;;;;;;0.13;0.13;;;;;;;8.83;100.00;99287.72;333133;28;6881;-76
2023/12/24 00:52:59;;;;;;;0.10;0.10;;;;;;;8.84;100.00;99269.53;336121;28;4778;-76
2023/12/24 00:53:11;;;;;;;0.20;0.20;;;;;;;8.77;100.00;99274.06;335472;28;4740;-76
2023/12/24 00:53:26;;;;;;;0.30;0.20;;;;;;;8.75;100.00;99295.72;327692;29;18037;-76
2023/12/24 00:53:38;;;;;;;0.30;0.20;;;;;;;8.79;100.00;99272.28;332843;28;18227;-75
2023/12/24 00:53:51;;;;;;;0.20;0.20;;;;;;;8.80;100.00;99265.34;334580;29;4593;-76
2023/12/24 00:54:03;;;;;;;0.20;0.20;;;;;;;8.78;100.00;99259.38;331736;29;11906;-76
2023/12/24 00:54:15;;;;;;;0.20;0.20;;;;;;;8.77;100.00;99268.88;334897;29;4750;-76
2023/12/24 00:54:27;;;;;;;0.20;0.20;;;;;;;8.78;100.00;99280.94;332553;28;11005;-76
2023/12/24 00:54:39;;;;;;;0.20;0.20;;;;;;;8.78;100.00;99275.75;335058;28;17891;-76
2023/12/24 00:54:51;;;;;;;0.22;0.20;;;;;;;8.78;100.00;99238.63;336917;28;5263;-76
2023/12/24 00:55:04;;;;;;;0.30;0.20;;;;;;;8.84;100.00;99266.09;328909;28;12701;-75
2023/12/24 00:55:16;;;;;;;0.45;0.20;;;;;;;8.79;100.00;99238.59;335303;28;5619;-77
2023/12/24 00:55:28;;;;;;;0.40;0.20;;;;;;;8.82;100.00;99281.69;333345;28;16209;-77
2023/12/24 00:55:41;;;;;;;0.15;0.15;;;;;;;8.77;100.00;99279.25;336044;28;4697;-77
2023/12/24 00:55:53;;;;;;;0.20;0.20;;;;;;;8.82;100.00;99244.56;330619;29;18312;-77
2023/12/24 00:56:06;;;;;;;0.20;0.20;;;;;;;8.85;100.00;99257.41;333416;29;4756;-76
2023/12/24 00:56:18;;;;;;;1.35;0.20;;;;;;;8.86;100.00;99283.28;333024;29;5712;-76
2023/12/24 00:56:30;;;;;;;1.30;0.20;;;;;;;8.78;100.00;99267.97;333031;29;4582;-76
2023/12/24 00:56:42;;;;;;;0.40;0.20;;;;;;;8.83;100.00;99266.97;334781;29;4670;-76
2023/12/24 00:56:54;;;;;;;0.30;0.20;;;;;;;8.86;100.00;99274.69;331783;29;18579;-76
2023/12/24 00:57:06;;;;;;;0.30;0.20;;;;;;;8.87;100.00;99266.00;334838;29;5558;-76
2023/12/24 00:57:19;;;;;;;0.32;0.22;;;;;;;8.85;100.00;99270.38;332028;29;12538;-78
2023/12/24 00:57:31;;;;;;;0.32;0.22;;;;;;;8.86;100.00;99285.03;333824;29;5330;-76
2023/12/24 00:57:43;;;;;;;0.30;0.20;;;;;;;8.86;100.00;99272.09;333950;28;13805;-76
2023/12/24 00:57:55;;;;;;;0.13;0.10;;;;;;;8.83;100.00;99266.97;327560;29;18468;-76
2023/12/24 00:58:07;;;;;;;0.10;0.10;;;;;;;8.74;100.00;99262.94;335880;28;5341;-76
2023/12/24 00:58:19;;;;;;;0.10;0.10;;;;;;;8.75;100.00;99268.09;333530;28;6420;-75
2023/12/24 00:58:31;;;;;;;0.10;0.10;;;;;;;8.68;100.00;99260.56;335747;28;5465;-76
2023/12/24 00:58:43;;;;;;;0.30;0.20;;;;;;;8.69;100.00;99286.41;336418;28;4733;-76
2023/12/24 00:58:55;;;;;;;0.30;0.30;;;;;;;8.68;100.00;99278.69;334087;28;18140;-76
2023/12/24 00:59:08;;;;;;;0.35;0.20;;;;;;;8.63;100.00;99290.91;336246;28;4652;-76
2023/12/24 00:59:20;;;;;;;0.20;0.20;;;;;;;8.65;100.00;99258.88;328587;28;17990;-77
2023/12/24 00:59:32;;;;;;;0.20;0.20;;;;;;;8.64;100.00;99257.19;336293;28;4531;-75